»·PEaware :: N968LT KFUL-KGCN

N968LT :: KFUL-KGCN

FLIGHT INFORMATION

Flight Status: Arrived
Operator: Privately registered:
United States
More flights under this callsign
Pilot: Terry F. (30390)
Aircraft: MOONEY M-20 201 202 205 220 ATS MSE
(M20P)
More flights by this aircraft type
Origin: KFUL Fullerton Mun
United States
Destination: KGCN Grand Canyon Natl Park
United States
More flights between these airports :: More routes between these airports
Route: +SLI V8 PDZ V442 APLES HEC V210 GCN
File this flight plan on PilotEdge
Remarks:
Altitude:
(Current/Filed)
11,000ft
Speed:
(Current/Filed)
150kts
Departed: 24-Nov-20 02:18 PM
Arrived: 24-Nov-20 04:22 PM
Distance/Time
Traveled:
313nm/2:04
Distance/Time
To Go:
Arrived

Flight Plot

Page will automatically refresh every two minutes.

Flight plan parsing failed; only flown route is shown


Map Options




Map Legend


Flown Route
Filed Route
Departure Airport
Arrival Airport
Navaid (VOR, NDB)
Fix

Horizontal Profiles

Position Reports

Time Latitude Longitude Heading Altitude Ground
Speed
24-Nov-20 13:43 33.871162 -117.978181 259 91ft 0kts
24-Nov-20 13:44 33.871162 -117.978181 259 91ft 0kts
24-Nov-20 13:45 33.871162 -117.978181 259 91ft 0kts
24-Nov-20 13:46 33.871162 -117.978181 258 91ft 0kts
24-Nov-20 13:47 33.871162 -117.978181 258 91ft 0kts
24-Nov-20 13:48 33.871162 -117.978181 258 91ft 0kts
24-Nov-20 13:49 33.871162 -117.978181 258 91ft 0kts
24-Nov-20 13:50 33.871162 -117.978181 259 91ft 0kts
24-Nov-20 13:51 33.871162 -117.978181 259 91ft 0kts
24-Nov-20 13:52 33.871162 -117.978181 259 91ft 0kts
24-Nov-20 13:53 33.871162 -117.978181 259 91ft 0kts
24-Nov-20 13:54 33.871162 -117.978181 259 91ft 0kts
24-Nov-20 13:55 33.871162 -117.978181 259 91ft 0kts
24-Nov-20 13:56 33.871162 -117.978181 259 91ft 0kts
24-Nov-20 13:57 33.871162 -117.978181 259 91ft 0kts
24-Nov-20 13:58 33.871162 -117.978181 259 91ft 0kts
24-Nov-20 13:59 33.871162 -117.978181 259 91ft 0kts
24-Nov-20 14:00 33.871162 -117.978181 259 91ft 0kts
24-Nov-20 14:01 33.871162 -117.978181 259 91ft 0kts
24-Nov-20 14:02 33.871162 -117.978181 259 91ft 0kts
24-Nov-20 14:03 33.871162 -117.978181 259 91ft 0kts
24-Nov-20 14:04 33.871162 -117.978181 259 91ft 0kts
24-Nov-20 14:05 33.871162 -117.978181 259 91ft 0kts
24-Nov-20 14:06 33.871162 -117.978181 259 91ft 0kts
24-Nov-20 14:07 33.871162 -117.978181 259 91ft 0kts
24-Nov-20 14:08 33.871162 -117.978181 259 91ft 0kts
24-Nov-20 14:09 33.871162 -117.978181 259 91ft 0kts
24-Nov-20 14:10 33.871162 -117.978181 259 91ft 0kts
24-Nov-20 14:11 33.871704 -117.978375 46 90ft 6kts
24-Nov-20 14:12 33.872210 -117.976553 63 94ft 10kts
24-Nov-20 14:13 33.872523 -117.974780 318 94ft 0kts
24-Nov-20 14:14 33.872523 -117.974780 318 94ft 0kts
24-Nov-20 14:15 33.872523 -117.974780 318 94ft 0kts
24-Nov-20 14:16 33.872876 -117.974877 319 94ft 8kts
24-Nov-20 14:17 33.866976 -117.996493 210 789ft 95kts
24-Nov-20 14:18 33.843367 -117.973180 128 1640ft 135kts
24-Nov-20 14:20 33.818957 -117.936276 126 1934ft 147kts
24-Nov-20 14:21 33.796405 -117.898345 124 1932ft 131kts
24-Nov-20 14:22 33.776728 -117.864204 119 1935ft 120kts
24-Nov-20 14:23 33.755631 -117.833777 133 1934ft 117kts
24-Nov-20 14:24 33.737556 -117.842524 296 2489ft 87kts
24-Nov-20 14:25 33.747191 -117.873087 280 3366ft 122kts
24-Nov-20 14:26 33.759277 -117.905952 3 4174ft 142kts
24-Nov-20 14:27 33.788244 -117.874624 49 4968ft 149kts
24-Nov-20 14:28 33.814114 -117.837754 48 6085ft 138kts
24-Nov-20 14:29 33.838351 -117.803848 47 7269ft 130kts
24-Nov-20 14:30 33.856143 -117.768386 68 8442ft 121kts
24-Nov-20 14:31 33.867839 -117.726522 71 8945ft 157kts
24-Nov-20 14:32 33.881598 -117.673045 72 8937ft 173kts
24-Nov-20 14:33 33.895812 -117.617503 71 9158ft 167kts
24-Nov-20 14:34 33.909088 -117.565752 71 9848ft 158kts
24-Nov-20 14:35 33.932910 -117.525012 32 10565ft 154kts
24-Nov-20 14:36 33.971274 -117.498703 26 10939ft 168kts
24-Nov-20 14:37 34.014343 -117.472264 25 10937ft 176kts
24-Nov-20 14:37 34.051027 -117.450152 25 10936ft 178kts
24-Nov-20 14:39 34.102919 -117.418930 25 10936ft 178kts
24-Nov-20 14:39 34.140013 -117.396600 25 10936ft 179kts
24-Nov-20 14:41 34.191861 -117.365585 25 10936ft 178kts
24-Nov-20 14:41 34.228614 -117.343376 22 11010ft 172kts
24-Nov-20 14:42 34.271474 -117.317550 22 11030ft 172kts
24-Nov-20 14:43 34.314241 -117.291694 22 11047ft 172kts
24-Nov-20 14:44 34.357054 -117.265771 22 11058ft 172kts
24-Nov-20 14:45 34.399865 -117.239818 22 11042ft 174kts
24-Nov-20 14:46 34.443409 -117.213374 22 10973ft 174kts
24-Nov-20 14:47 34.486612 -117.187130 22 10983ft 173kts
24-Nov-20 14:48 34.529458 -117.161069 22 10998ft 172kts
24-Nov-20 14:49 34.559462 -117.115758 58 11012ft 179kts
24-Nov-20 14:50 34.580736 -117.060802 60 11013ft 180kts
24-Nov-20 14:51 34.601123 -117.005234 60 11011ft 180kts
24-Nov-20 14:52 34.621378 -116.949617 60 11009ft 179kts
24-Nov-20 14:53 34.641520 -116.894186 59 11006ft 179kts
24-Nov-20 14:54 34.661579 -116.838899 59 11023ft 178kts
24-Nov-20 14:55 34.680796 -116.785894 58 11026ft 167kts
24-Nov-20 14:56 34.700126 -116.732455 59 11023ft 176kts
24-Nov-20 14:57 34.719963 -116.677415 59 11023ft 178kts
24-Nov-20 14:58 34.739837 -116.622225 59 11023ft 178kts
24-Nov-20 14:59 34.759802 -116.566701 59 11023ft 178kts
24-Nov-20 15:00 34.779664 -116.511374 59 11023ft 178kts
24-Nov-20 15:01 34.798757 -116.455293 64 11022ft 180kts
24-Nov-20 15:02 34.814454 -116.397227 65 11023ft 180kts
24-Nov-20 15:03 34.829934 -116.338953 65 11031ft 181kts
24-Nov-20 15:04 34.845339 -116.280745 65 11042ft 181kts
24-Nov-20 15:05 34.860775 -116.222276 65 11053ft 181kts
24-Nov-20 15:06 34.876252 -116.163517 66 11065ft 182kts
24-Nov-20 15:07 34.891712 -116.104677 65 11064ft 183kts
24-Nov-20 15:08 34.907153 -116.045776 65 11060ft 182kts
24-Nov-20 15:09 34.922570 -115.986845 65 11055ft 182kts
24-Nov-20 15:10 34.937840 -115.928356 65 11051ft 181kts
24-Nov-20 15:11 34.953053 -115.869952 65 11050ft 180kts
24-Nov-20 15:12 34.968154 -115.811853 65 11052ft 179kts
24-Nov-20 15:13 34.983111 -115.754183 64 11057ft 178kts
24-Nov-20 15:14 34.997921 -115.696955 64 11063ft 176kts
24-Nov-20 15:15 35.012701 -115.639723 64 11054ft 176kts
24-Nov-20 15:16 35.027325 -115.582953 64 11032ft 175kts
24-Nov-20 15:17 35.041908 -115.526226 64 11010ft 174kts
24-Nov-20 15:18 35.056380 -115.469823 64 10993ft 173kts
24-Nov-20 15:19 35.070755 -115.413679 64 10985ft 173kts
24-Nov-20 15:20 35.085075 -115.357633 64 10987ft 173kts
24-Nov-20 15:21 35.099410 -115.301410 65 10986ft 173kts
24-Nov-20 15:22 35.113761 -115.244992 65 10989ft 174kts
24-Nov-20 15:23 35.128138 -115.188318 65 10984ft 175kts
24-Nov-20 15:24 35.144660 -115.133104 61 10986ft 173kts
24-Nov-20 15:25 35.161670 -115.078155 61 10987ft 172kts
24-Nov-20 15:26 35.178617 -115.023419 62 10988ft 172kts
24-Nov-20 15:27 35.195466 -114.968914 62 10988ft 171kts
24-Nov-20 15:28 35.212263 -114.914473 62 10988ft 171kts
24-Nov-20 15:29 35.228275 -114.862484 62 10988ft 170kts
24-Nov-20 15:30 35.245696 -114.805820 62 10988ft 170kts
24-Nov-20 15:31 35.262343 -114.751557 62 10987ft 170kts
24-Nov-20 15:32 35.278971 -114.697266 62 10987ft 170kts
24-Nov-20 15:33 35.295638 -114.642740 62 10987ft 170kts
24-Nov-20 15:34 35.312217 -114.588399 62 10987ft 170kts
24-Nov-20 15:35 35.328771 -114.534040 62 10987ft 170kts
24-Nov-20 15:36 35.345320 -114.479602 62 10987ft 170kts
24-Nov-20 15:37 35.361864 -114.425071 62 10990ft 170kts
24-Nov-20 15:38 35.378331 -114.370693 62 10995ft 170kts
24-Nov-20 15:39 35.394804 -114.316187 63 11001ft 170kts
24-Nov-20 15:40 35.411221 -114.261776 63 11020ft 170kts
24-Nov-20 15:41 35.427670 -114.207135 63 11013ft 171kts
24-Nov-20 15:42 35.444111 -114.152422 63 11013ft 171kts
24-Nov-20 15:43 35.460503 -114.097777 63 11013ft 171kts
24-Nov-20 15:44 35.476902 -114.042999 63 11012ft 171kts
24-Nov-20 15:45 35.493306 -113.988101 63 11012ft 171kts
24-Nov-20 15:46 35.509600 -113.933464 63 11012ft 171kts
24-Nov-20 15:47 35.525919 -113.878642 63 11012ft 171kts
24-Nov-20 15:48 35.542185 -113.823888 63 11012ft 171kts
24-Nov-20 15:49 35.558436 -113.769082 63 11012ft 171kts
24-Nov-20 15:50 35.574688 -113.714165 63 11012ft 171kts
24-Nov-20 15:51 35.590876 -113.659357 63 11012ft 171kts
24-Nov-20 15:52 35.607068 -113.604430 63 11012ft 171kts
24-Nov-20 15:53 35.623183 -113.549574 64 11011ft 171kts
24-Nov-20 15:54 35.636998 -113.493402 66 11012ft 171kts
24-Nov-20 15:55 35.650572 -113.437003 66 11011ft 171kts
24-Nov-20 15:56 35.664091 -113.380656 66 11011ft 171kts
24-Nov-20 15:57 35.677582 -113.324298 67 11012ft 172kts
24-Nov-20 15:58 35.691062 -113.267852 67 11011ft 172kts
24-Nov-20 15:59 35.704504 -113.211436 67 11011ft 172kts
24-Nov-20 16:00 35.717947 -113.154888 67 11011ft 172kts
24-Nov-20 16:01 35.731421 -113.098078 67 11011ft 173kts
24-Nov-20 16:02 35.744896 -113.041134 67 11011ft 174kts
24-Nov-20 16:03 35.758494 -112.983598 68 11012ft 177kts
24-Nov-20 16:04 35.772371 -112.924695 69 11012ft 181kts
24-Nov-20 16:05 35.786395 -112.864955 71 11012ft 182kts
24-Nov-20 16:06 35.800484 -112.804792 72 11013ft 182kts
24-Nov-20 16:07 35.814507 -112.744768 72 11012ft 181kts
24-Nov-20 16:08 35.828454 -112.684969 72 11012ft 181kts
24-Nov-20 16:09 35.842502 -112.624562 72 10818ft 190kts
24-Nov-20 16:11 35.857360 -112.560447 72 10327ft 197kts
24-Nov-20 16:12 35.872450 -112.495209 72 9830ft 198kts
24-Nov-20 16:13 35.887142 -112.429660 74 9334ft 198kts
24-Nov-20 16:14 35.900710 -112.364017 74 8996ft 192kts
24-Nov-20 16:15 35.913662 -112.301686 74 8996ft 184kts
24-Nov-20 16:16 35.929302 -112.242329 45 9013ft 181kts
24-Nov-20 16:17 35.963171 -112.200977 42 8992ft 154kts
24-Nov-20 16:18 35.988526 -112.169636 42 8980ft 112kts
24-Nov-20 16:19 35.994696 -112.137111 125 8278ft 113kts
24-Nov-20 16:20 35.973091 -112.125113 211 7080ft 82kts
24-Nov-20 16:21 35.958129 -112.140706 219 6613ft 46kts
24-Nov-20 16:22 35.956330 -112.141224 143 6609ft 0kts
24-Nov-20 16:23 35.955438 -112.141662 215 6609ft 0kts

Navigation Log

Ident Type
Flight plan parsing failed, navigation log unavailable